EGXS

RAF Swinderby Airport

Swinderby, United Kingdom
METAR EGXS 221750Z AUTO 23008KT 9999 // BKN060/// 17/10 Q1006
Observed Flight Rules
Apr-22 @ 17:50 UTC (26 minutes ago) Visual Flight Rules
Wind Visibility Clouds
230° at 8 knots 10,000+ meters
  • Broken at 6,000' AGL
Temperatures Readings
Current 17°C / 63°F
Dewpoint 10°C / 50°F
Humidity 64%
Altimeter 29.7" Hg
Pressure 1006 hPa
Elevation 3
METAR EGXS 221750Z AUTO 23008KT 9999 // BKN060/// 17/10 Q1006
Observed Flight Rules
Apr-22 @ 17:50 UTC
(26 minutes ago)
VFR
Wind Visibility
230° at 8 knots 10,000+ meters
Clouds
  • Broken at 6,000' AGL
Temperature Dewpoint
17°C / 63°F 10°C / 50°F
Humidity Altimeter Pressure
64% 29.7" Hg 1006 hPa